sensor_id;sensor_type;location;lat;lon;timestamp;temperature;humidity
8099;DHT22;4092;47.876;9.372;2023-05-13T00:00:37;9.70;99.90
8099;DHT22;4092;47.876;9.372;2023-05-13T00:03:05;9.70;99.90
8099;DHT22;4092;47.876;9.372;2023-05-13T00:05:32;9.70;99.90
8099;DHT22;4092;47.876;9.372;2023-05-13T00:07:59;9.70;99.90
8099;DHT22;4092;47.876;9.372;2023-05-13T00:10:31;9.70;99.90
8099;DHT22;4092;47.876;9.372;2023-05-13T00:12:58;9.70;99.90
8099;DHT22;4092;47.876;9.372;2023-05-13T00:15:26;9.70;99.90
8099;DHT22;4092;47.876;9.372;2023-05-13T00:17:53;9.70;99.90
8099;DHT22;4092;47.876;9.372;2023-05-13T00:20:22;9.70;99.90
8099;DHT22;4092;47.876;9.372;2023-05-13T00:22:49;9.70;99.90
8099;DHT22;4092;47.876;9.372;2023-05-13T00:25:16;9.70;99.90
8099;DHT22;4092;47.876;9.372;2023-05-13T00:27:43;9.70;99.90
8099;DHT22;4092;47.876;9.372;2023-05-13T00:30:10;9.60;99.90
8099;DHT22;4092;47.876;9.372;2023-05-13T00:32:37;9.70;99.90
8099;DHT22;4092;47.876;9.372;2023-05-13T00:35:05;9.70;99.90
8099;DHT22;4092;47.876;9.372;2023-05-13T00:37:33;9.60;99.90
8099;DHT22;4092;47.876;9.372;2023-05-13T00:40:00;9.60;99.90
8099;DHT22;4092;47.876;9.372;2023-05-13T00:42:28;9.70;99.90
8099;DHT22;4092;47.876;9.372;2023-05-13T00:44:55;9.70;99.90
8099;DHT22;4092;47.876;9.372;2023-05-13T00:47:22;9.60;99.90
8099;DHT22;4092;47.876;9.372;2023-05-13T00:49:49;9.60;99.90
8099;DHT22;4092;47.876;9.372;2023-05-13T00:52:16;9.60;99.90
8099;DHT22;4092;47.876;9.372;2023-05-13T00:54:44;9.60;99.90
8099;DHT22;4092;47.876;9.372;2023-05-13T00:57:11;9.60;99.90
8099;DHT22;4092;47.876;9.372;2023-05-13T00:59:38;9.50;99.90
8099;DHT22;4092;47.876;9.372;2023-05-13T01:02:09;9.50;99.90
8099;DHT22;4092;47.876;9.372;2023-05-13T01:04:51;9.50;99.90
8099;DHT22;4092;47.876;9.372;2023-05-13T01:07:26;9.50;99.90
8099;DHT22;4092;47.876;9.372;2023-05-13T01:10:01;9.50;99.90
8099;DHT22;4092;47.876;9.372;2023-05-13T01:12:32;9.60;99.90
8099;DHT22;4092;47.876;9.372;2023-05-13T01:15:04;9.60;99.90
8099;DHT22;4092;47.876;9.372;2023-05-13T01:17:34;9.50;99.90
8099;DHT22;4092;47.876;9.372;2023-05-13T01:20:03;9.50;99.90
8099;DHT22;4092;47.876;9.372;2023-05-13T01:22:32;9.50;99.90
8099;DHT22;4092;47.876;9.372;2023-05-13T01:24:59;9.50;99.90
8099;DHT22;4092;47.876;9.372;2023-05-13T01:27:26;9.50;99.90
8099;DHT22;4092;47.876;9.372;2023-05-13T01:29:54;9.40;99.90
8099;DHT22;4092;47.876;9.372;2023-05-13T01:32:22;9.40;99.90
8099;DHT22;4092;47.876;9.372;2023-05-13T01:34:50;9.40;99.90
8099;DHT22;4092;47.876;9.372;2023-05-13T01:37:18;9.50;99.90
8099;DHT22;4092;47.876;9.372;2023-05-13T01:39:49;9.40;99.90
8099;DHT22;4092;47.876;9.372;2023-05-13T01:42:16;9.40;99.90
8099;DHT22;4092;47.876;9.372;2023-05-13T01:44:43;9.40;99.90
8099;DHT22;4092;47.876;9.372;2023-05-13T01:47:10;9.40;99.90
8099;DHT22;4092;47.876;9.372;2023-05-13T01:49:37;9.30;99.90
8099;DHT22;4092;47.876;9.372;2023-05-13T01:52:04;9.30;99.90
8099;DHT22;4092;47.876;9.372;2023-05-13T01:54:32;9.30;99.90
8099;DHT22;4092;47.876;9.372;2023-05-13T01:57:00;9.30;99.90
8099;DHT22;4092;47.876;9.372;2023-05-13T01:59:27;9.30;99.90
8099;DHT22;4092;47.876;9.372;2023-05-13T02:01:54;9.40;99.90
8099;DHT22;4092;47.876;9.372;2023-05-13T02:04:21;9.30;99.90
8099;DHT22;4092;47.876;9.372;2023-05-13T02:06:48;9.30;99.90
8099;DHT22;4092;47.876;9.372;2023-05-13T02:09:16;9.30;99.90
8099;DHT22;4092;47.876;9.372;2023-05-13T02:11:44;9.30;99.90
8099;DHT22;4092;47.876;9.372;2023-05-13T02:14:13;9.20;99.90
8099;DHT22;4092;47.876;9.372;2023-05-13T02:16:40;9.20;99.90
8099;DHT22;4092;47.876;9.372;2023-05-13T02:19:07;9.20;99.90
8099;DHT22;4092;47.876;9.372;2023-05-13T02:21:34;9.20;99.90
8099;DHT22;4092;47.876;9.372;2023-05-13T02:24:01;9.20;99.90
8099;DHT22;4092;47.876;9.372;2023-05-13T02:26:28;9.20;99.90
8099;DHT22;4092;47.876;9.372;2023-05-13T02:28:55;9.20;99.90
8099;DHT22;4092;47.876;9.372;2023-05-13T02:31:23;9.20;99.90
8099;DHT22;4092;47.876;9.372;2023-05-13T02:33:51;9.20;99.90
8099;DHT22;4092;47.876;9.372;2023-05-13T02:36:19;9.10;99.90
8099;DHT22;4092;47.876;9.372;2023-05-13T02:38:46;9.10;99.90
8099;DHT22;4092;47.876;9.372;2023-05-13T02:41:13;9.10;99.90
8099;DHT22;4092;47.876;9.372;2023-05-13T02:43:40;9.10;99.90
8099;DHT22;4092;47.876;9.372;2023-05-13T02:46:07;9.10;99.90
8099;DHT22;4092;47.876;9.372;2023-05-13T02:48:38;9.10;99.90
8099;DHT22;4092;47.876;9.372;2023-05-13T02:51:05;9.10;99.90
8099;DHT22;4092;47.876;9.372;2023-05-13T02:53:34;9.10;99.90
8099;DHT22;4092;47.876;9.372;2023-05-13T02:56:01;9.10;99.90
8099;DHT22;4092;47.876;9.372;2023-05-13T02:58:28;9.10;99.90
8099;DHT22;4092;47.876;9.372;2023-05-13T03:00:55;9.10;99.90
8099;DHT22;4092;47.876;9.372;2023-05-13T03:03:22;9.00;99.90
8099;DHT22;4092;47.876;9.372;2023-05-13T03:05:50;9.00;99.90
8099;DHT22;4092;47.876;9.372;2023-05-13T03:08:17;9.00;99.90
8099;DHT22;4092;47.876;9.372;2023-05-13T03:10:44;9.00;99.90
8099;DHT22;4092;47.876;9.372;2023-05-13T03:13:11;9.00;99.90
8099;DHT22;4092;47.876;9.372;2023-05-13T03:15:39;9.00;99.90
8099;DHT22;4092;47.876;9.372;2023-05-13T03:18:06;9.00;99.90
8099;DHT22;4092;47.876;9.372;2023-05-13T03:20:33;9.00;99.90
8099;DHT22;4092;47.876;9.372;2023-05-13T03:23:01;9.00;99.90
8099;DHT22;4092;47.876;9.372;2023-05-13T03:25:28;9.00;99.90
8099;DHT22;4092;47.876;9.372;2023-05-13T03:27:56;9.00;99.90
8099;DHT22;4092;47.876;9.372;2023-05-13T03:30:22;9.00;99.90
8099;DHT22;4092;47.876;9.372;2023-05-13T03:32:50;9.00;99.90
8099;DHT22;4092;47.876;9.372;2023-05-13T03:35:17;9.00;99.90
8099;DHT22;4092;47.876;9.372;2023-05-13T03:37:44;9.00;99.90
8099;DHT22;4092;47.876;9.372;2023-05-13T03:40:12;9.00;99.90
8099;DHT22;4092;47.876;9.372;2023-05-13T03:42:39;9.00;99.90
8099;DHT22;4092;47.876;9.372;2023-05-13T03:45:08;9.00;99.90
8099;DHT22;4092;47.876;9.372;2023-05-13T03:47:35;9.00;99.90
8099;DHT22;4092;47.876;9.372;2023-05-13T03:50:04;9.00;99.90
8099;DHT22;4092;47.876;9.372;2023-05-13T03:52:31;9.10;99.90
8099;DHT22;4092;47.876;9.372;2023-05-13T03:54:58;9.10;99.90
8099;DHT22;4092;47.876;9.372;2023-05-13T03:57:26;9.10;99.90
8099;DHT22;4092;47.876;9.372;2023-05-13T03:59:53;9.10;99.90
8099;DHT22;4092;47.876;9.372;2023-05-13T04:02:20;9.00;99.90
8099;DHT22;4092;47.876;9.372;2023-05-13T04:04:48;9.00;99.90
8099;DHT22;4092;47.876;9.372;2023-05-13T04:07:15;9.00;99.90
8099;DHT22;4092;47.876;9.372;2023-05-13T04:09:42;9.00;99.90
8099;DHT22;4092;47.876;9.372;2023-05-13T04:12:09;9.00;99.90
8099;DHT22;4092;47.876;9.372;2023-05-13T04:14:37;9.00;99.90
8099;DHT22;4092;47.876;9.372;2023-05-13T04:17:04;9.00;99.90
8099;DHT22;4092;47.876;9.372;2023-05-13T04:19:31;9.00;99.90
8099;DHT22;4092;47.876;9.372;2023-05-13T04:21:58;9.00;99.90
8099;DHT22;4092;47.876;9.372;2023-05-13T04:24:25;9.00;99.90
8099;DHT22;4092;47.876;9.372;2023-05-13T04:26:52;8.90;99.90
8099;DHT22;4092;47.876;9.372;2023-05-13T04:29:19;8.90;99.90
8099;DHT22;4092;47.876;9.372;2023-05-13T04:31:48;8.90;99.90
8099;DHT22;4092;47.876;9.372;2023-05-13T04:34:15;9.00;99.90
8099;DHT22;4092;47.876;9.372;2023-05-13T04:36:42;8.90;99.90
8099;DHT22;4092;47.876;9.372;2023-05-13T04:39:11;9.00;99.90
8099;DHT22;4092;47.876;9.372;2023-05-13T04:41:37;8.90;99.90
8099;DHT22;4092;47.876;9.372;2023-05-13T04:44:05;8.90;99.90
8099;DHT22;4092;47.876;9.372;2023-05-13T04:46:32;9.00;99.90
8099;DHT22;4092;47.876;9.372;2023-05-13T04:49:00;9.00;99.90
8099;DHT22;4092;47.876;9.372;2023-05-13T04:51:27;9.00;99.90
8099;DHT22;4092;47.876;9.372;2023-05-13T04:53:54;9.10;99.90
8099;DHT22;4092;47.876;9.372;2023-05-13T04:56:21;9.10;99.90
8099;DHT22;4092;47.876;9.372;2023-05-13T04:58:48;9.10;99.90
8099;DHT22;4092;47.876;9.372;2023-05-13T05:01:15;9.10;99.90
8099;DHT22;4092;47.876;9.372;2023-05-13T05:03:42;9.10;99.90
8099;DHT22;4092;47.876;9.372;2023-05-13T05:06:10;9.20;99.90
8099;DHT22;4092;47.876;9.372;2023-05-13T05:08:37;9.20;99.90
8099;DHT22;4092;47.876;9.372;2023-05-13T05:11:04;9.20;99.90
8099;DHT22;4092;47.876;9.372;2023-05-13T05:13:31;9.20;99.90
8099;DHT22;4092;47.876;9.372;2023-05-13T05:15:58;9.30;99.90
8099;DHT22;4092;47.876;9.372;2023-05-13T05:18:25;9.20;99.90
8099;DHT22;4092;47.876;9.372;2023-05-13T05:20:52;9.20;99.90
8099;DHT22;4092;47.876;9.372;2023-05-13T05:23:21;9.20;99.90
8099;DHT22;4092;47.876;9.372;2023-05-13T05:25:48;9.20;99.90
8099;DHT22;4092;47.876;9.372;2023-05-13T05:28:15;9.20;99.90
8099;DHT22;4092;47.876;9.372;2023-05-13T05:30:42;9.10;99.90
8099;DHT22;4092;47.876;9.372;2023-05-13T05:33:09;9.10;99.90
8099;DHT22;4092;47.876;9.372;2023-05-13T05:35:36;9.10;99.90
8099;DHT22;4092;47.876;9.372;2023-05-13T05:38:03;9.10;99.90
8099;DHT22;4092;47.876;9.372;2023-05-13T05:40:39;9.10;99.90
8099;DHT22;4092;47.876;9.372;2023-05-13T05:43:07;9.10;99.90
8099;DHT22;4092;47.876;9.372;2023-05-13T05:45:35;9.00;99.90
8099;DHT22;4092;47.876;9.372;2023-05-13T05:48:03;9.10;99.90
8099;DHT22;4092;47.876;9.372;2023-05-13T05:50:31;9.10;99.90
8099;DHT22;4092;47.876;9.372;2023-05-13T05:52:58;9.10;99.90
8099;DHT22;4092;47.876;9.372;2023-05-13T05:55:25;9.20;99.90
8099;DHT22;4092;47.876;9.372;2023-05-13T05:57:54;9.10;99.90
8099;DHT22;4092;47.876;9.372;2023-05-13T06:00:21;9.10;99.90
8099;DHT22;4092;47.876;9.372;2023-05-13T06:02:48;9.20;99.90
8099;DHT22;4092;47.876;9.372;2023-05-13T06:05:16;9.20;99.90
8099;DHT22;4092;47.876;9.372;2023-05-13T06:07:43;9.20;99.90
8099;DHT22;4092;47.876;9.372;2023-05-13T06:10:10;9.10;99.90
8099;DHT22;4092;47.876;9.372;2023-05-13T06:12:37;9.20;99.90
8099;DHT22;4092;47.876;9.372;2023-05-13T06:15:08;9.20;99.90
8099;DHT22;4092;47.876;9.372;2023-05-13T06:17:35;9.20;99.90
8099;DHT22;4092;47.876;9.372;2023-05-13T06:20:03;9.30;99.90
8099;DHT22;4092;47.876;9.372;2023-05-13T06:22:30;9.20;99.90
8099;DHT22;4092;47.876;9.372;2023-05-13T06:24:57;9.20;99.90
8099;DHT22;4092;47.876;9.372;2023-05-13T06:27:24;9.20;99.90
8099;DHT22;4092;47.876;9.372;2023-05-13T06:29:51;9.30;99.90
8099;DHT22;4092;47.876;9.372;2023-05-13T06:32:20;9.30;99.90
8099;DHT22;4092;47.876;9.372;2023-05-13T06:34:47;9.20;99.90
8099;DHT22;4092;47.876;9.372;2023-05-13T06:37:16;9.20;99.90
8099;DHT22;4092;47.876;9.372;2023-05-13T06:39:43;9.30;99.90
8099;DHT22;4092;47.876;9.372;2023-05-13T06:42:10;9.30;99.90
8099;DHT22;4092;47.876;9.372;2023-05-13T06:44:38;9.30;99.90
8099;DHT22;4092;47.876;9.372;2023-05-13T06:47:05;9.30;99.90
8099;DHT22;4092;47.876;9.372;2023-05-13T06:49:34;9.30;99.90
8099;DHT22;4092;47.876;9.372;2023-05-13T06:52:01;9.30;99.90
8099;DHT22;4092;47.876;9.372;2023-05-13T06:54:28;9.40;99.90
8099;DHT22;4092;47.876;9.372;2023-05-13T06:56:55;9.40;99.90
8099;DHT22;4092;47.876;9.372;2023-05-13T06:59:25;9.40;99.90
8099;DHT22;4092;47.876;9.372;2023-05-13T07:01:52;9.40;99.90
8099;DHT22;4092;47.876;9.372;2023-05-13T07:04:19;9.40;99.90
8099;DHT22;4092;47.876;9.372;2023-05-13T07:06:48;9.40;99.90
8099;DHT22;4092;47.876;9.372;2023-05-13T07:09:16;9.50;99.90
8099;DHT22;4092;47.876;9.372;2023-05-13T07:11:43;9.50;99.90
8099;DHT22;4092;47.876;9.372;2023-05-13T07:14:10;9.50;99.90
8099;DHT22;4092;47.876;9.372;2023-05-13T07:16:37;9.50;99.90
8099;DHT22;4092;47.876;9.372;2023-05-13T07:19:04;9.40;99.90
8099;DHT22;4092;47.876;9.372;2023-05-13T07:21:31;9.50;99.90
8099;DHT22;4092;47.876;9.372;2023-05-13T07:23:59;9.50;99.90
8099;DHT22;4092;47.876;9.372;2023-05-13T07:26:26;9.50;99.90
8099;DHT22;4092;47.876;9.372;2023-05-13T07:28:55;9.60;99.90
8099;DHT22;4092;47.876;9.372;2023-05-13T07:31:22;9.60;99.90
8099;DHT22;4092;47.876;9.372;2023-05-13T07:33:50;9.70;99.90
8099;DHT22;4092;47.876;9.372;2023-05-13T07:36:16;9.70;99.90
8099;DHT22;4092;47.876;9.372;2023-05-13T07:38:43;9.70;99.90
8099;DHT22;4092;47.876;9.372;2023-05-13T07:41:12;9.60;99.90
8099;DHT22;4092;47.876;9.372;2023-05-13T07:43:39;9.60;99.90
8099;DHT22;4092;47.876;9.372;2023-05-13T07:46:07;9.60;99.90
8099;DHT22;4092;47.876;9.372;2023-05-13T07:48:34;9.60;99.90
8099;DHT22;4092;47.876;9.372;2023-05-13T07:51:02;9.60;99.90
8099;DHT22;4092;47.876;9.372;2023-05-13T07:53:29;9.60;99.90
8099;DHT22;4092;47.876;9.372;2023-05-13T07:55:56;9.50;99.90
8099;DHT22;4092;47.876;9.372;2023-05-13T07:58:24;9.60;99.90
8099;DHT22;4092;47.876;9.372;2023-05-13T08:00:51;9.70;99.90
8099;DHT22;4092;47.876;9.372;2023-05-13T08:03:18;9.80;99.90
8099;DHT22;4092;47.876;9.372;2023-05-13T08:05:45;9.80;99.90
8099;DHT22;4092;47.876;9.372;2023-05-13T08:08:13;9.80;99.90
8099;DHT22;4092;47.876;9.372;2023-05-13T08:10:40;9.80;99.90
8099;DHT22;4092;47.876;9.372;2023-05-13T08:13:07;9.80;99.90
8099;DHT22;4092;47.876;9.372;2023-05-13T08:15:38;9.90;99.90
8099;DHT22;4092;47.876;9.372;2023-05-13T08:18:07;9.80;99.90
8099;DHT22;4092;47.876;9.372;2023-05-13T08:20:34;9.90;99.90
8099;DHT22;4092;47.876;9.372;2023-05-13T08:23:01;9.90;99.90
8099;DHT22;4092;47.876;9.372;2023-05-13T08:25:28;9.80;99.90
8099;DHT22;4092;47.876;9.372;2023-05-13T08:27:55;9.80;99.90
8099;DHT22;4092;47.876;9.372;2023-05-13T08:30:24;9.90;99.90
8099;DHT22;4092;47.876;9.372;2023-05-13T08:32:52;9.90;99.90
8099;DHT22;4092;47.876;9.372;2023-05-13T08:35:20;9.90;99.90
8099;DHT22;4092;47.876;9.372;2023-05-13T08:37:48;9.90;99.90
8099;DHT22;4092;47.876;9.372;2023-05-13T08:40:15;10.00;99.90
8099;DHT22;4092;47.876;9.372;2023-05-13T08:42:42;10.00;99.90
8099;DHT22;4092;47.876;9.372;2023-05-13T08:45:12;9.90;99.90
8099;DHT22;4092;47.876;9.372;2023-05-13T08:47:49;10.00;99.90
8099;DHT22;4092;47.876;9.372;2023-05-13T08:50:19;9.90;99.90
8099;DHT22;4092;47.876;9.372;2023-05-13T08:52:46;9.90;99.90
8099;DHT22;4092;47.876;9.372;2023-05-13T08:55:15;9.90;99.90
8099;DHT22;4092;47.876;9.372;2023-05-13T08:57:43;9.90;99.90
8099;DHT22;4092;47.876;9.372;2023-05-13T09:00:11;9.90;99.90
8099;DHT22;4092;47.876;9.372;2023-05-13T09:02:41;9.90;99.90
8099;DHT22;4092;47.876;9.372;2023-05-13T09:05:09;9.90;99.90
8099;DHT22;4092;47.876;9.372;2023-05-13T09:07:38;10.00;99.90
8099;DHT22;4092;47.876;9.372;2023-05-13T09:10:07;9.90;99.90
8099;DHT22;4092;47.876;9.372;2023-05-13T09:12:46;10.00;99.90
8099;DHT22;4092;47.876;9.372;2023-05-13T09:15:14;9.90;99.90
8099;DHT22;4092;47.876;9.372;2023-05-13T09:17:43;9.90;99.90
8099;DHT22;4092;47.876;9.372;2023-05-13T09:20:11;9.90;99.90
8099;DHT22;4092;47.876;9.372;2023-05-13T09:22:45;9.90;99.90
8099;DHT22;4092;47.876;9.372;2023-05-13T09:25:13;9.90;99.90
8099;DHT22;4092;47.876;9.372;2023-05-13T09:27:42;10.00;99.90
8099;DHT22;4092;47.876;9.372;2023-05-13T09:30:10;10.00;99.90
8099;DHT22;4092;47.876;9.372;2023-05-13T09:32:38;10.00;99.90
8099;DHT22;4092;47.876;9.372;2023-05-13T09:35:10;10.00;99.90
8099;DHT22;4092;47.876;9.372;2023-05-13T09:37:44;9.90;99.90
8099;DHT22;4092;47.876;9.372;2023-05-13T09:40:13;10.00;99.90
8099;DHT22;4092;47.876;9.372;2023-05-13T09:42:42;9.90;99.90
8099;DHT22;4092;47.876;9.372;2023-05-13T09:45:10;10.00;99.90
8099;DHT22;4092;47.876;9.372;2023-05-13T09:47:37;10.00;99.90
8099;DHT22;4092;47.876;9.372;2023-05-13T09:50:07;9.90;99.90
8099;DHT22;4092;47.876;9.372;2023-05-13T09:52:35;10.00;99.90
8099;DHT22;4092;47.876;9.372;2023-05-13T09:55:08;10.00;99.90
8099;DHT22;4092;47.876;9.372;2023-05-13T09:57:35;9.90;99.90
8099;DHT22;4092;47.876;9.372;2023-05-13T10:00:04;9.90;99.90
8099;DHT22;4092;47.876;9.372;2023-05-13T10:02:33;10.00;99.90
8099;DHT22;4092;47.876;9.372;2023-05-13T10:05:02;10.10;99.90
8099;DHT22;4092;47.876;9.372;2023-05-13T10:07:30;10.20;99.90
8099;DHT22;4092;47.876;9.372;2023-05-13T10:10:00;10.30;99.90
8099;DHT22;4092;47.876;9.372;2023-05-13T10:12:45;10.30;99.90
8099;DHT22;4092;47.876;9.372;2023-05-13T10:15:21;10.30;99.90
8099;DHT22;4092;47.876;9.372;2023-05-13T10:17:50;10.40;99.90
8099;DHT22;4092;47.876;9.372;2023-05-13T10:20:17;10.30;99.90
8099;DHT22;4092;47.876;9.372;2023-05-13T10:22:47;10.40;99.90
8099;DHT22;4092;47.876;9.372;2023-05-13T10:25:16;10.40;99.90
8099;DHT22;4092;47.876;9.372;2023-05-13T10:27:46;10.30;99.90
8099;DHT22;4092;47.876;9.372;2023-05-13T10:30:16;10.30;99.90
8099;DHT22;4092;47.876;9.372;2023-05-13T10:32:43;10.30;99.90
8099;DHT22;4092;47.876;9.372;2023-05-13T10:35:12;10.20;99.90
8099;DHT22;4092;47.876;9.372;2023-05-13T10:37:55;10.20;99.90
8099;DHT22;4092;47.876;9.372;2023-05-13T10:40:54;10.30;99.90
8099;DHT22;4092;47.876;9.372;2023-05-13T10:43:37;10.30;99.90
8099;DHT22;4092;47.876;9.372;2023-05-13T10:46:06;10.40;99.90
8099;DHT22;4092;47.876;9.372;2023-05-13T10:48:46;10.50;99.90
8099;DHT22;4092;47.876;9.372;2023-05-13T10:51:38;10.50;99.90
8099;DHT22;4092;47.876;9.372;2023-05-13T10:54:25;10.70;99.90
8099;DHT22;4092;47.876;9.372;2023-05-13T10:57:00;10.70;99.90
8099;DHT22;4092;47.876;9.372;2023-05-13T10:59:29;10.70;99.90
8099;DHT22;4092;47.876;9.372;2023-05-13T11:02:01;10.70;99.90
8099;DHT22;4092;47.876;9.372;2023-05-13T11:04:30;10.70;99.90
8099;DHT22;4092;47.876;9.372;2023-05-13T11:07:13;10.60;99.90
8099;DHT22;4092;47.876;9.372;2023-05-13T11:09:50;10.50;99.90
8099;DHT22;4092;47.876;9.372;2023-05-13T11:12:21;10.50;99.90
8099;DHT22;4092;47.876;9.372;2023-05-13T11:14:54;10.60;99.90
8099;DHT22;4092;47.876;9.372;2023-05-13T11:17:24;10.70;99.90
8099;DHT22;4092;47.876;9.372;2023-05-13T11:20:11;10.80;99.90
8099;DHT22;4092;47.876;9.372;2023-05-13T11:22:40;10.90;99.90
8099;DHT22;4092;47.876;9.372;2023-05-13T11:25:15;10.80;99.90
8099;DHT22;4092;47.876;9.372;2023-05-13T11:27:42;10.80;99.90
8099;DHT22;4092;47.876;9.372;2023-05-13T11:30:25;10.80;99.90
8099;DHT22;4092;47.876;9.372;2023-05-13T11:32:53;10.70;99.90
8099;DHT22;4092;47.876;9.372;2023-05-13T11:35:22;10.70;99.90
8099;DHT22;4092;47.876;9.372;2023-05-13T11:37:52;10.60;99.90
8099;DHT22;4092;47.876;9.372;2023-05-13T11:40:38;10.60;99.90
8099;DHT22;4092;47.876;9.372;2023-05-13T11:43:08;10.70;99.90
8099;DHT22;4092;47.876;9.372;2023-05-13T11:45:44;10.50;99.90
8099;DHT22;4092;47.876;9.372;2023-05-13T11:48:21;10.50;99.90
8099;DHT22;4092;47.876;9.372;2023-05-13T11:50:49;10.50;99.90
8099;DHT22;4092;47.876;9.372;2023-05-13T11:53:19;10.50;99.90
8099;DHT22;4092;47.876;9.372;2023-05-13T11:55:47;10.50;99.90
8099;DHT22;4092;47.876;9.372;2023-05-13T11:58:15;10.60;99.90
8099;DHT22;4092;47.876;9.372;2023-05-13T12:00:43;10.60;99.90
8099;DHT22;4092;47.876;9.372;2023-05-13T12:03:11;10.50;99.90
8099;DHT22;4092;47.876;9.372;2023-05-13T12:05:40;10.40;99.90
8099;DHT22;4092;47.876;9.372;2023-05-13T12:08:10;10.40;99.90
8099;DHT22;4092;47.876;9.372;2023-05-13T12:10:42;10.30;99.90
8099;DHT22;4092;47.876;9.372;2023-05-13T12:13:09;10.30;99.90
8099;DHT22;4092;47.876;9.372;2023-05-13T12:15:37;10.30;99.90
8099;DHT22;4092;47.876;9.372;2023-05-13T12:18:06;10.20;99.90
8099;DHT22;4092;47.876;9.372;2023-05-13T12:20:33;10.20;99.90
8099;DHT22;4092;47.876;9.372;2023-05-13T12:23:00;10.30;99.90
8099;DHT22;4092;47.876;9.372;2023-05-13T12:25:47;10.30;99.90
8099;DHT22;4092;47.876;9.372;2023-05-13T12:28:17;10.30;99.90
8099;DHT22;4092;47.876;9.372;2023-05-13T12:30:49;10.30;99.90
8099;DHT22;4092;47.876;9.372;2023-05-13T12:33:19;10.30;99.90
8099;DHT22;4092;47.876;9.372;2023-05-13T12:35:48;10.30;99.90
8099;DHT22;4092;47.876;9.372;2023-05-13T12:38:19;10.30;99.90
8099;DHT22;4092;47.876;9.372;2023-05-13T12:40:49;10.40;99.90
8099;DHT22;4092;47.876;9.372;2023-05-13T12:43:18;10.50;99.90
8099;DHT22;4092;47.876;9.372;2023-05-13T12:45:46;10.80;99.90
8099;DHT22;4092;47.876;9.372;2023-05-13T12:48:13;11.00;99.90
8099;DHT22;4092;47.876;9.372;2023-05-13T12:50:41;11.20;99.90
8099;DHT22;4092;47.876;9.372;2023-05-13T12:53:09;11.20;99.90
8099;DHT22;4092;47.876;9.372;2023-05-13T12:55:36;11.30;99.90
8099;DHT22;4092;47.876;9.372;2023-05-13T12:58:05;11.30;99.90
8099;DHT22;4092;47.876;9.372;2023-05-13T13:00:35;11.30;99.90
8099;DHT22;4092;47.876;9.372;2023-05-13T13:03:02;11.30;99.90
8099;DHT22;4092;47.876;9.372;2023-05-13T13:05:29;11.20;99.90
8099;DHT22;4092;47.876;9.372;2023-05-13T13:07:58;11.10;99.90
8099;DHT22;4092;47.876;9.372;2023-05-13T13:10:27;11.10;99.90
8099;DHT22;4092;47.876;9.372;2023-05-13T13:12:54;11.20;99.90
8099;DHT22;4092;47.876;9.372;2023-05-13T13:15:21;11.30;99.90
8099;DHT22;4092;47.876;9.372;2023-05-13T13:17:49;11.40;99.90
8099;DHT22;4092;47.876;9.372;2023-05-13T13:20:16;11.40;99.90
8099;DHT22;4092;47.876;9.372;2023-05-13T13:22:43;11.50;99.90
8099;DHT22;4092;47.876;9.372;2023-05-13T13:25:12;11.50;99.90
8099;DHT22;4092;47.876;9.372;2023-05-13T13:27:39;11.40;99.90
8099;DHT22;4092;47.876;9.372;2023-05-13T13:30:07;11.30;99.90
8099;DHT22;4092;47.876;9.372;2023-05-13T13:32:34;11.20;99.90
8099;DHT22;4092;47.876;9.372;2023-05-13T13:35:01;11.10;99.90
8099;DHT22;4092;47.876;9.372;2023-05-13T13:37:30;11.00;99.90
8099;DHT22;4092;47.876;9.372;2023-05-13T13:39:57;11.00;99.90
8099;DHT22;4092;47.876;9.372;2023-05-13T13:42:25;10.90;99.90
8099;DHT22;4092;47.876;9.372;2023-05-13T13:44:52;10.80;99.90
8099;DHT22;4092;47.876;9.372;2023-05-13T13:47:19;10.80;99.90
8099;DHT22;4092;47.876;9.372;2023-05-13T13:49:47;10.90;99.90
8099;DHT22;4092;47.876;9.372;2023-05-13T13:52:14;10.90;99.90
8099;DHT22;4092;47.876;9.372;2023-05-13T13:54:42;10.90;99.90
8099;DHT22;4092;47.876;9.372;2023-05-13T13:57:09;10.90;99.90
8099;DHT22;4092;47.876;9.372;2023-05-13T13:59:37;10.90;99.90
8099;DHT22;4092;47.876;9.372;2023-05-13T14:02:04;10.70;99.90
8099;DHT22;4092;47.876;9.372;2023-05-13T14:04:31;10.70;99.90
8099;DHT22;4092;47.876;9.372;2023-05-13T14:06:58;10.70;99.90
8099;DHT22;4092;47.876;9.372;2023-05-13T14:09:25;10.60;99.90
8099;DHT22;4092;47.876;9.372;2023-05-13T14:11:52;10.70;99.90
8099;DHT22;4092;47.876;9.372;2023-05-13T14:14:19;10.70;99.90
8099;DHT22;4092;47.876;9.372;2023-05-13T14:16:48;10.70;99.90
8099;DHT22;4092;47.876;9.372;2023-05-13T14:19:15;10.70;99.90
8099;DHT22;4092;47.876;9.372;2023-05-13T14:21:43;10.70;99.90
8099;DHT22;4092;47.876;9.372;2023-05-13T14:24:10;10.70;99.90
8099;DHT22;4092;47.876;9.372;2023-05-13T14:26:37;10.70;99.90
8099;DHT22;4092;47.876;9.372;2023-05-13T14:29:05;10.70;99.90
8099;DHT22;4092;47.876;9.372;2023-05-13T14:31:32;10.80;99.90
8099;DHT22;4092;47.876;9.372;2023-05-13T14:34:00;10.80;99.90
8099;DHT22;4092;47.876;9.372;2023-05-13T14:36:27;10.80;99.90
8099;DHT22;4092;47.876;9.372;2023-05-13T14:38:54;10.80;99.90
8099;DHT22;4092;47.876;9.372;2023-05-13T14:41:21;10.90;99.90
8099;DHT22;4092;47.876;9.372;2023-05-13T14:43:50;10.80;99.90
8099;DHT22;4092;47.876;9.372;2023-05-13T14:46:17;10.80;99.90
8099;DHT22;4092;47.876;9.372;2023-05-13T14:48:44;10.80;99.90
8099;DHT22;4092;47.876;9.372;2023-05-13T14:51:13;10.70;99.90
8099;DHT22;4092;47.876;9.372;2023-05-13T14:53:41;10.70;99.90
8099;DHT22;4092;47.876;9.372;2023-05-13T14:56:08;10.80;99.90
8099;DHT22;4092;47.876;9.372;2023-05-13T14:58:35;10.90;99.90
8099;DHT22;4092;47.876;9.372;2023-05-13T15:01:03;11.10;99.90
8099;DHT22;4092;47.876;9.372;2023-05-13T15:03:30;11.30;99.90
8099;DHT22;4092;47.876;9.372;2023-05-13T15:05:57;11.50;99.90
8099;DHT22;4092;47.876;9.372;2023-05-13T15:46:29;11.60;99.90
8099;DHT22;4092;47.876;9.372;2023-05-13T15:48:58;11.60;99.90
8099;DHT22;4092;47.876;9.372;2023-05-13T15:51:30;11.60;99.90
8099;DHT22;4092;47.876;9.372;2023-05-13T15:54:02;11.60;99.90
8099;DHT22;4092;47.876;9.372;2023-05-13T15:56:36;11.50;99.90
8099;DHT22;4092;47.876;9.372;2023-05-13T15:59:04;11.50;99.90
8099;DHT22;4092;47.876;9.372;2023-05-13T16:01:32;11.40;99.90
8099;DHT22;4092;47.876;9.372;2023-05-13T16:03:59;11.40;99.90
8099;DHT22;4092;47.876;9.372;2023-05-13T16:06:26;11.40;99.90
8099;DHT22;4092;47.876;9.372;2023-05-13T16:08:53;11.30;99.90
8099;DHT22;4092;47.876;9.372;2023-05-13T16:11:20;11.20;99.90
8099;DHT22;4092;47.876;9.372;2023-05-13T16:13:47;11.10;99.90
8099;DHT22;4092;47.876;9.372;2023-05-13T16:16:14;11.10;99.90
8099;DHT22;4092;47.876;9.372;2023-05-13T16:18:43;11.10;99.90
8099;DHT22;4092;47.876;9.372;2023-05-13T16:21:10;11.00;99.90
8099;DHT22;4092;47.876;9.372;2023-05-13T16:23:37;11.00;99.90
8099;DHT22;4092;47.876;9.372;2023-05-13T16:26:04;11.00;99.90
8099;DHT22;4092;47.876;9.372;2023-05-13T16:28:31;10.90;99.90
8099;DHT22;4092;47.876;9.372;2023-05-13T16:30:58;10.80;99.90
8099;DHT22;4092;47.876;9.372;2023-05-13T16:33:27;10.90;99.90
8099;DHT22;4092;47.876;9.372;2023-05-13T16:35:56;10.90;99.90
8099;DHT22;4092;47.876;9.372;2023-05-13T16:38:23;10.90;99.90
8099;DHT22;4092;47.876;9.372;2023-05-13T16:40:50;10.90;99.90
8099;DHT22;4092;47.876;9.372;2023-05-13T16:43:17;10.80;99.90
8099;DHT22;4092;47.876;9.372;2023-05-13T16:45:44;10.80;99.90
8099;DHT22;4092;47.876;9.372;2023-05-13T16:48:11;10.80;99.90
8099;DHT22;4092;47.876;9.372;2023-05-13T16:50:39;10.80;99.90
8099;DHT22;4092;47.876;9.372;2023-05-13T16:53:07;10.80;99.90
8099;DHT22;4092;47.876;9.372;2023-05-13T16:55:34;10.80;99.90
8099;DHT22;4092;47.876;9.372;2023-05-13T16:58:01;10.80;99.90